This is the latest recevied weather packets stored in our database for station/object KB1WCR. If no packets are shown the sender has not sent any weather packets the latest 1 day(s).
| Time | Temp. | Humidity | Pressure | Rain* | Wind** | Luminosity | Snow |
|---|---|---|---|---|---|---|---|
| 1778026361 | 18.89° C | 70% | 1007 hPa | 0 mm | 0 m/s | 0 W/m² | - |
| 1778026058 | 18.89° C | 69% | 1007 hPa | 0 mm | 0.89 m/s, 246° | 0 W/m² | - |
| 1778025755 | 18.89° C | 71% | 1006.7 hPa | 0 mm | 0.45 m/s, 223° | 0 W/m² | - |
| 1778025452 | 18.89° C | 73% | 1006.1 hPa | 0 mm | 0.45 m/s, 172° | 1 W/m² | - |
| 1778025150 | 19.44° C | 73% | 1006.2 hPa | 0 mm | 0 m/s | 1 W/m² | - |
| 1778024846 | 19.44° C | 72% | 1006.4 hPa | 0 mm | 0 m/s | 3 W/m² | - |
| 1778024544 | 20° C | 71% | 1005.8 hPa | 0 mm | 0.45 m/s, 218° | 6 W/m² | - |
| 1778024240 | 20.56° C | 67% | 1005.9 hPa | 0 mm | 0 m/s | 13 W/m² | - |
| 1778023939 | 20.56° C | 65% | 1005.9 hPa | 0 mm | 0.45 m/s, 296° | 8 W/m² | - |
| 1778023635 | 20.56° C | 65% | 1006.2 hPa | 0 mm | 0.45 m/s, 321° | 12 W/m² | - |
| 1778023333 | 20.56° C | 65% | 1006.3 hPa | 0 mm | 1.34 m/s, 280° | 9 W/m² | - |
| 1778023029 | 20.56° C | 64% | 1006.1 hPa | 0 mm | 0 m/s | 4 W/m² | - |
| 1778022728 | 21.11° C | 64% | 1006.5 hPa | 0 mm | 0.89 m/s, 271° | 4 W/m² | - |
| 1778022426 | 21.11° C | 63% | 1006.6 hPa | 0 mm | 4.02 m/s, 281° | 3 W/m² | - |
| 1778022122 | 21.11° C | 62% | 1006.5 hPa | 0 mm | 2.68 m/s, 291° | 3 W/m² | - |
| 1778021819 | 20° C | 63% | 1006.3 hPa | 0 mm | 3.13 m/s, 288° | 3 W/m² | - |
| 1778021516 | 20° C | 63% | 1006.3 hPa | 0 mm | 1.34 m/s, 216° | 2 W/m² | - |
| 1778021211 | 20° C | 62% | 1006.5 hPa | 0 mm | 1.79 m/s, 222° | 3 W/m² | - |
| 1778020909 | 20° C | 61% | 1004.7 hPa | 0 mm | 2.68 m/s, 229° | 8 W/m² | - |
| 1778020606 | 20° C | 61% | 1004.3 hPa | 0 mm | 1.34 m/s, 300° | 31 W/m² | - |
| 1778020302 | 20° C | 61% | 1004.2 hPa | 0 mm | 1.34 m/s, 229° | 72 W/m² | - |
| 1778019993 | 20.56° C | 60% | 1004.3 hPa | 0 mm | 3.13 m/s, 236° | 78 W/m² | - |
| 1778019689 | 20.56° C | 60% | 1004.1 hPa | 0 mm | 1.34 m/s, 211° | 93 W/m² | - |
| 1778019386 | 20.56° C | 59% | 1004.1 hPa | 0 mm | 3.13 m/s, 187° | 107 W/m² | - |
| 1778019083 | 20.56° C | 60% | 1004.1 hPa | 0 mm | 1.34 m/s, 187° | 111 W/m² | - |
* Rain latest hour (hover to see other rain measurements)
** Current wind speed in m/s (hover to see current wind gust speed)